Time;durP1;ratioP1;P1;durP2;ratioP2;P2;SDS_P1;SDS_P2;PMS_P1;PMS_P2;Temp;Humidity;BMP_temperature;BMP_pressure;BME280_temperature;BME280_humidity;BME280_pressure;Samples;Min_cycle;Max_cycle;Signal;HPM_P1;HPM_P2
2022/05/29 00:02:18;;;;;;;14.05;5.90;;;;;;;;;;5006773;28;20268;-55
2022/05/29 00:04:43;;;;;;;11.73;5.47;;;;;;;;;;5001377;28;20084;-53
2022/05/29 00:07:12;;;;;;;10.75;5.90;;;;;;;;;;5007088;28;20272;-53
2022/05/29 00:09:44;;;;;;;10.95;5.40;;;;;;;;;;5000998;28;20057;-54
2022/05/29 00:12:09;;;;;;;13.05;5.57;;;;;;;;;;5006490;28;20033;-55
2022/05/29 00:14:35;;;;;;;10.68;5.65;;;;;;;;;;5002720;28;20018;-55
2022/05/29 00:17:00;;;;;;;12.27;6.45;;;;;;;;;;4995740;28;20812;-55
2022/05/29 00:19:25;;;;;;;12.37;5.73;;;;;;;;;;4994784;28;20029;-55
2022/05/29 00:21:51;;;;;;;14.55;5.55;;;;;;;;;;5000143;28;20273;-54
2022/05/29 00:24:16;;;;;;;12.02;5.50;;;;;;;;;;5011261;28;20018;-55
2022/05/29 00:26:41;;;;;;;12.40;5.30;;;;;;;;;;4998369;28;20462;-55
2022/05/29 00:29:07;;;;;;;12.13;6.15;;;;;;;;;;4998849;28;20091;-54
2022/05/29 00:31:33;;;;;;;13.35;6.05;;;;;;;;;;4999096;28;20650;-53
2022/05/29 00:33:58;;;;;;;10.98;5.57;;;;;;;;;;4995286;28;20520;-53
2022/05/29 00:36:23;;;;;;;10.93;5.47;;;;;;;;;;5002258;28;20463;-55
2022/05/29 00:38:50;;;;;;;10.50;5.87;;;;;;;;;;5009184;28;20347;-55
2022/05/29 00:41:20;;;;;;;11.40;5.85;;;;;;;;;;4998168;28;20954;-56
2022/05/29 00:44:04;;;;;;;13.27;5.82;;;;;;;;;;5010499;28;20018;-54
2022/05/29 00:46:30;;;;;;;13.20;7.00;;;;;;;;;;4997062;28;20092;-53
2022/05/29 00:48:55;;;;;;;10.30;6.28;;;;;;;;;;4998875;28;20075;-54
2022/05/29 00:51:23;;;;;;;12.17;5.70;;;;;;;;;;4999111;28;20095;-56
2022/05/29 00:53:48;;;;;;;13.57;6.75;;;;;;;;;;4994824;28;20300;-54
2022/05/29 00:56:13;;;;;;;13.67;5.73;;;;;;;;;;4994459;28;20438;-55
2022/05/29 00:58:38;;;;;;;10.32;5.75;;;;;;;;;;4994724;28;20631;-55
2022/05/29 01:01:04;;;;;;;15.73;5.63;;;;;;;;;;4994007;28;20091;-56
2022/05/29 01:03:29;;;;;;;12.50;5.60;;;;;;;;;;5008978;28;20281;-55
2022/05/29 01:05:54;;;;;;;12.10;6.40;;;;;;;;;;4997090;28;20125;-56
2022/05/29 01:08:34;;;;;;;14.30;6.53;;;;;;;;;;4996160;28;20494;-55
2022/05/29 01:11:18;;;;;;;10.90;6.05;;;;;;;;;;4993170;28;20301;-56
2022/05/29 01:13:49;;;;;;;10.85;6.00;;;;;;;;;;4996562;28;20019;-56
2022/05/29 01:16:15;;;;;;;11.32;6.15;;;;;;;;;;4995843;28;20026;-55
2022/05/29 01:18:46;;;;;;;11.37;5.80;;;;;;;;;;4996418;28;20108;-54
2022/05/29 01:21:26;;;;;;;12.25;5.93;;;;;;;;;;4986635;28;20022;-55
2022/05/29 01:24:00;;;;;;;10.88;5.47;;;;;;;;;;4997457;28;20112;-55
2022/05/29 01:26:44;;;;;;;11.45;5.72;;;;;;;;;;4993002;28;20045;-55
2022/05/29 01:29:12;;;;;;;10.93;5.22;;;;;;;;;;4987795;28;20528;-55
2022/05/29 01:31:37;;;;;;;9.65;5.20;;;;;;;;;;4998934;28;20030;-54
2022/05/29 01:34:02;;;;;;;11.83;5.07;;;;;;;;;;4989833;28;20516;-55
2022/05/29 01:36:33;;;;;;;13.57;4.93;;;;;;;;;;4993495;28;20474;-55
2022/05/29 01:39:00;;;;;;;10.70;5.35;;;;;;;;;;4991322;28;20396;-54
2022/05/29 01:41:25;;;;;;;11.15;5.15;;;;;;;;;;5010950;28;20014;-54
2022/05/29 01:43:52;;;;;;;10.43;4.60;;;;;;;;;;4992258;28;20081;-54
2022/05/29 01:46:18;;;;;;;9.35;4.55;;;;;;;;;;5006268;28;20332;-54
2022/05/29 01:48:54;;;;;;;9.95;4.72;;;;;;;;;;5009584;28;20030;-54
2022/05/29 01:51:20;;;;;;;10.45;4.32;;;;;;;;;;5000580;28;20076;-52
2022/05/29 01:54:09;;;;;;;10.15;4.57;;;;;;;;;;5005051;28;20092;-54
2022/05/29 01:56:35;;;;;;;9.60;4.72;;;;;;;;;;4993598;28;20065;-55
2022/05/29 01:59:08;;;;;;;8.85;5.07;;;;;;;;;;5003544;28;20108;-52
2022/05/29 02:01:34;;;;;;;7.47;4.10;;;;;;;;;;4993479;28;20023;-54
2022/05/29 02:04:04;;;;;;;8.75;3.92;;;;;;;;;;5000077;28;20029;-54
2022/05/29 02:09:30;;;;;;;8.98;4.18;;;;;;;;;;4993464;28;20050;-54
2022/05/29 02:11:55;;;;;;;8.48;3.97;;;;;;;;;;5001133;28;20619;-55
2022/05/29 02:14:21;;;;;;;8.77;4.18;;;;;;;;;;4995515;28;20038;-55
2022/05/29 02:16:55;;;;;;;10.48;4.35;;;;;;;;;;5010798;28;20018;-55
2022/05/29 02:19:23;;;;;;;11.57;3.95;;;;;;;;;;4995869;28;20026;-54
2022/05/29 02:21:48;;;;;;;8.63;4.35;;;;;;;;;;4992944;28;20030;-56
2022/05/29 02:24:18;;;;;;;9.53;3.60;;;;;;;;;;4995691;28;20502;-55
2022/05/29 02:27:02;;;;;;;8.63;3.92;;;;;;;;;;5000595;28;20049;-53
2022/05/29 02:29:28;;;;;;;8.68;4.35;;;;;;;;;;5003889;28;20050;-55
2022/05/29 02:31:53;;;;;;;10.48;3.97;;;;;;;;;;4992558;28;20433;-54
2022/05/29 02:34:36;;;;;;;6.50;3.30;;;;;;;;;;4989519;28;20030;-55
2022/05/29 02:37:20;;;;;;;7.05;3.45;;;;;;;;;;4991214;28;20293;-54
2022/05/29 02:40:15;;;;;;;7.88;3.38;;;;;;;;;;4994248;28;20022;-54
2022/05/29 02:42:41;;;;;;;8.07;3.35;;;;;;;;;;4981052;28;20046;-53
2022/05/29 02:45:19;;;;;;;9.63;3.08;;;;;;;;;;4994243;28;20050;-55
2022/05/29 02:47:53;;;;;;;8.13;3.50;;;;;;;;;;4999910;28;20025;-54
2022/05/29 02:50:27;;;;;;;7.60;2.90;;;;;;;;;;4992113;28;20061;-53
2022/05/29 02:52:53;;;;;;;8.38;3.20;;;;;;;;;;4993316;28;20022;-54
2022/05/29 02:55:22;;;;;;;8.15;2.92;;;;;;;;;;5000173;28;20076;-55
2022/05/29 02:57:48;;;;;;;7.00;3.17;;;;;;;;;;4993881;28;20018;-53
2022/05/29 03:00:13;;;;;;;6.13;2.70;;;;;;;;;;5000780;28;20088;-54
2022/05/29 03:02:43;;;;;;;7.28;3.03;;;;;;;;;;5009296;28;20050;-55
2022/05/29 03:05:08;;;;;;;8.80;4.38;;;;;;;;;;4998778;28;20038;-55
2022/05/29 03:07:54;;;;;;;7.80;3.25;;;;;;;;;;4992872;28;20108;-55
2022/05/29 03:10:32;;;;;;;7.80;3.17;;;;;;;;;;4994390;28;20038;-55
2022/05/29 03:13:01;;;;;;;5.38;2.80;;;;;;;;;;5010986;28;20034;-54
2022/05/29 03:15:41;;;;;;;9.20;3.00;;;;;;;;;;4994127;28;20112;-54
2022/05/29 03:18:16;;;;;;;7.25;2.97;;;;;;;;;;4988582;28;20034;-55
2022/05/29 03:20:43;;;;;;;8.95;3.08;;;;;;;;;;4998639;28;20038;-56
2022/05/29 03:23:10;;;;;;;8.15;3.10;;;;;;;;;;4991271;28;20033;-54
2022/05/29 03:25:40;;;;;;;7.05;3.38;;;;;;;;;;4991202;28;20068;-55
2022/05/29 03:28:05;;;;;;;;;;;;;;;;;;4997949;28;20026;-55
2022/05/29 03:30:35;;;;;;;18.33;3.53;;;;;;;;;;4991550;28;19932;-55
2022/05/29 03:33:01;;;;;;;6.18;2.90;;;;;;;;;;4989835;28;20034;-55
2022/05/29 03:35:29;;;;;;;9.10;3.47;;;;;;;;;;4991588;28;20034;-55
2022/05/29 03:37:54;;;;;;;5.63;2.95;;;;;;;;;;4991319;28;20022;-55
2022/05/29 03:40:20;;;;;;;7.07;2.95;;;;;;;;;;5006563;28;20037;-53
2022/05/29 03:42:45;;;;;;;7.53;3.00;;;;;;;;;;4992071;28;20089;-54
2022/05/29 03:45:11;;;;;;;6.90;3.10;;;;;;;;;;4995930;28;20049;-56
2022/05/29 03:47:36;;;;;;;8.00;3.17;;;;;;;;;;5006710;28;20088;-53
2022/05/29 03:50:02;;;;;;;8.52;3.38;;;;;;;;;;4993425;28;20011;-53
2022/05/29 03:52:27;;;;;;;7.45;3.10;;;;;;;;;;4996159;28;20038;-52
2022/05/29 03:54:52;;;;;;;9.57;3.20;;;;;;;;;;4994291;28;20021;-54
2022/05/29 03:57:18;;;;;;;9.02;3.28;;;;;;;;;;4998963;28;20364;-53
2022/05/29 03:59:43;;;;;;;5.25;3.10;;;;;;;;;;4995252;28;20018;-53
2022/05/29 04:02:09;;;;;;;8.25;3.30;;;;;;;;;;4989573;28;20037;-55
2022/05/29 04:04:34;;;;;;;8.95;3.63;;;;;;;;;;4991622;28;20509;-55
2022/05/29 04:06:59;;;;;;;8.32;3.35;;;;;;;;;;4990438;28;20053;-55
2022/05/29 04:12:09;;;;;;;7.85;3.17;;;;;;;;;;4989608;28;20357;-55
2022/05/29 04:14:36;;;;;;;8.82;3.53;;;;;;;;;;4987832;28;20022;-55
2022/05/29 04:17:01;;;;;;;6.88;3.22;;;;;;;;;;4990786;28;20474;-55
2022/05/29 04:19:26;;;;;;;5.70;3.13;;;;;;;;;;4987239;28;20022;-55
2022/05/29 04:21:52;;;;;;;8.95;3.10;;;;;;;;;;4988399;28;20799;-55
2022/05/29 04:24:19;;;;;;;6.05;3.33;;;;;;;;;;4991389;28;20045;-55
2022/05/29 04:26:44;;;;;;;9.57;3.53;;;;;;;;;;4988696;28;20038;-54
2022/05/29 04:29:10;;;;;;;9.73;3.50;;;;;;;;;;4985733;28;20407;-53
2022/05/29 04:31:35;;;;;;;9.53;3.57;;;;;;;;;;4988530;28;20026;-55
2022/05/29 04:34:00;;;;;;;7.90;3.33;;;;;;;;;;4985504;28;20278;-54
2022/05/29 04:36:25;;;;;;;7.43;3.20;;;;;;;;;;4988257;28;20277;-54
2022/05/29 04:38:55;;;;;;;6.18;3.13;;;;;;;;;;4995913;28;20053;-55
2022/05/29 04:41:25;;;;;;;7.57;3.22;;;;;;;;;;4996945;28;20014;-54
2022/05/29 04:43:50;;;;;;;8.50;3.20;;;;;;;;;;4993860;28;20056;-55
2022/05/29 04:46:15;;;;;;;8.63;3.25;;;;;;;;;;4996972;28;20488;-53
2022/05/29 04:48:41;;;;;;;10.03;3.20;;;;;;;;;;4991708;28;20683;-55
2022/05/29 04:51:06;;;;;;;7.00;3.45;;;;;;;;;;4993714;28;20759;-55
2022/05/29 04:53:32;;;;;;;8.27;3.47;;;;;;;;;;4993719;28;20026;-56
2022/05/29 04:55:57;;;;;;;5.40;3.10;;;;;;;;;;4994943;28;20509;-55
2022/05/29 04:58:23;;;;;;;6.95;3.05;;;;;;;;;;5015202;28;20093;-55
2022/05/29 05:00:48;;;;;;;5.35;3.08;;;;;;;;;;4994535;28;20474;-56
2022/05/29 05:03:14;;;;;;;9.85;3.70;;;;;;;;;;4993758;28;20022;-55
2022/05/29 05:05:39;;;;;;;7.57;3.20;;;;;;;;;;4994415;28;20026;-54
2022/05/29 05:08:04;;;;;;;6.47;2.87;;;;;;;;;;4991977;28;20526;-55
2022/05/29 05:10:29;;;;;;;7.45;3.60;;;;;;;;;;4995357;28;20253;-55
2022/05/29 05:12:56;;;;;;;7.18;3.45;;;;;;;;;;4989730;28;20487;-55
2022/05/29 05:15:21;;;;;;;10.82;3.75;;;;;;;;;;4988928;28;21135;-55
2022/05/29 05:17:46;;;;;;;6.72;3.15;;;;;;;;;;4985070;28;20541;-56
2022/05/29 05:20:12;;;;;;;6.83;3.27;;;;;;;;;;4987968;28;20029;-54
2022/05/29 05:22:37;;;;;;;6.82;3.20;;;;;;;;;;4993802;28;21031;-55
2022/05/29 05:25:03;;;;;;;9.13;3.53;;;;;;;;;;4995784;28;20564;-55
2022/05/29 05:27:28;;;;;;;8.65;3.17;;;;;;;;;;4996663;28;20010;-55
2022/05/29 05:29:53;;;;;;;6.07;3.00;;;;;;;;;;4989197;28;20065;-56
2022/05/29 05:32:18;;;;;;;9.90;3.83;;;;;;;;;;4988452;28;20278;-56
2022/05/29 05:34:44;;;;;;;9.63;3.90;;;;;;;;;;4992372;28;20040;-54
2022/05/29 05:37:09;;;;;;;8.10;3.58;;;;;;;;;;4988906;28;20524;-54
2022/05/29 05:39:35;;;;;;;8.98;3.35;;;;;;;;;;4987094;28;20018;-55
2022/05/29 05:42:00;;;;;;;8.20;3.17;;;;;;;;;;4992121;28;20904;-53
2022/05/29 05:44:25;;;;;;;6.30;3.70;;;;;;;;;;4987828;28;20257;-56
2022/05/29 05:46:53;;;;;;;9.57;3.23;;;;;;;;;;4992493;28;20038;-52
2022/05/29 05:49:18;;;;;;;8.63;3.20;;;;;;;;;;4988768;28;20266;-54
2022/05/29 05:51:44;;;;;;;7.75;2.72;;;;;;;;;;4991761;28;20028;-53
2022/05/29 05:54:10;;;;;;;8.07;2.78;;;;;;;;;;4996017;28;20023;-53
2022/05/29 05:56:36;;;;;;;10.27;3.10;;;;;;;;;;5001621;28;20509;-53
2022/05/29 05:59:01;;;;;;;5.37;2.57;;;;;;;;;;5001028;28;20022;-58
2022/05/29 06:01:26;;;;;;;8.40;2.83;;;;;;;;;;4998819;28;20672;-50
2022/05/29 06:03:51;;;;;;;7.68;2.85;;;;;;;;;;4997238;28;20023;-53
2022/05/29 06:06:17;;;;;;;7.70;2.67;;;;;;;;;;4997058;28;20046;-53
2022/05/29 06:08:42;;;;;;;9.03;2.90;;;;;;;;;;4999147;28;20260;-54
2022/05/29 06:11:07;;;;;;;8.80;2.77;;;;;;;;;;4997125;28;20268;-53
2022/05/29 06:13:32;;;;;;;8.60;2.60;;;;;;;;;;4993650;28;20698;-54
2022/05/29 06:15:58;;;;;;;11.00;2.95;;;;;;;;;;4986894;28;20284;-54
2022/05/29 06:18:24;;;;;;;8.80;2.78;;;;;;;;;;4996422;28;20748;-52
2022/05/29 06:20:50;;;;;;;10.60;3.53;;;;;;;;;;5013899;28;20188;-53
2022/05/29 06:23:16;;;;;;;6.40;2.53;;;;;;;;;;5016015;28;20273;-55
2022/05/29 06:25:41;;;;;;;6.03;2.20;;;;;;;;;;4991613;28;20030;-53
2022/05/29 06:28:08;;;;;;;7.35;3.05;;;;;;;;;;4987466;28;20265;-54
2022/05/29 06:30:33;;;;;;;9.93;2.70;;;;;;;;;;4990516;28;20049;-54
2022/05/29 06:32:59;;;;;;;6.73;2.40;;;;;;;;;;4990053;28;20030;-54
2022/05/29 06:35:24;;;;;;;6.13;2.40;;;;;;;;;;4997536;28;20376;-53
2022/05/29 06:37:49;;;;;;;7.17;2.40;;;;;;;;;;4990593;28;20006;-53
2022/05/29 06:40:15;;;;;;;6.73;2.53;;;;;;;;;;4992893;28;20406;-54
2022/05/29 06:42:40;;;;;;;6.28;2.42;;;;;;;;;;4988941;28;20285;-53
2022/05/29 06:45:06;;;;;;;8.02;2.33;;;;;;;;;;5001029;28;20030;-52
2022/05/29 06:47:33;;;;;;;5.63;2.00;;;;;;;;;;5008457;28;20154;-52
2022/05/29 06:49:58;;;;;;;5.95;2.15;;;;;;;;;;5002042;28;20079;-56
2022/05/29 06:52:23;;;;;;;7.38;2.42;;;;;;;;;;5008734;28;20030;-53
2022/05/29 06:54:49;;;;;;;4.90;1.80;;;;;;;;;;5002740;28;20014;-53
2022/05/29 06:57:36;;;;;;;7.37;2.30;;;;;;;;;;5003526;28;20113;-54
2022/05/29 07:08:02;;;;;;;7.65;2.08;;;;;;;;;;5001133;28;20029;-53
2022/05/29 07:10:27;;;;;;;8.02;1.80;;;;;;;;;;5008416;28;20180;-51
2022/05/29 07:12:53;;;;;;;7.03;2.10;;;;;;;;;;4994309;28;20101;-53
2022/05/29 07:15:18;;;;;;;7.40;1.80;;;;;;;;;;5010311;28;20128;-54
2022/05/29 07:17:44;;;;;;;7.30;2.10;;;;;;;;;;4996744;28;20471;-53
2022/05/29 07:20:10;;;;;;;9.35;2.50;;;;;;;;;;5003444;28;20022;-53
2022/05/29 07:22:35;;;;;;;7.07;1.90;;;;;;;;;;5000752;28;20032;-54
2022/05/29 07:25:01;;;;;;;7.28;2.20;;;;;;;;;;4996951;28;20549;-54
2022/05/29 07:27:26;;;;;;;5.85;1.85;;;;;;;;;;4997645;28;20061;-54
2022/05/29 07:29:53;;;;;;;8.13;2.23;;;;;;;;;;5004834;28;20050;-53
2022/05/29 07:32:19;;;;;;;7.57;2.38;;;;;;;;;;4989798;28;20343;-53
2022/05/29 07:34:45;;;;;;;8.48;1.80;;;;;;;;;;4995546;28;20030;-56
2022/05/29 07:37:11;;;;;;;5.23;1.80;;;;;;;;;;4995424;28;20316;-54
2022/05/29 07:39:37;;;;;;;8.32;2.20;;;;;;;;;;4995850;28;20268;-54
2022/05/29 07:45:01;;;;;;;5.68;1.63;;;;;;;;;;4853688;22;20064;-77
2022/05/29 07:47:29;;;;;;;5.50;1.80;;;;;;;;;;5023365;28;20045;-77
2022/05/29 07:49:58;;;;;;;6.38;1.63;;;;;;;;;;4996047;23;20051;-53
2022/05/29 07:52:23;;;;;;;6.65;2.17;;;;;;;;;;4968508;28;20118;-53
2022/05/29 07:54:49;;;;;;;6.20;1.57;;;;;;;;;;4967647;28;20105;-53
2022/05/29 07:57:14;;;;;;;7.60;1.70;;;;;;;;;;4967822;28;20270;-53
2022/05/29 07:59:39;;;;;;;6.93;1.80;;;;;;;;;;4977423;28;20030;-53
2022/05/29 08:02:05;;;;;;;7.37;1.90;;;;;;;;;;4977814;28;20321;-53
2022/05/29 08:04:30;;;;;;;6.63;2.03;;;;;;;;;;4972125;28;20050;-53
2022/05/29 08:06:55;;;;;;;7.53;2.20;;;;;;;;;;4967237;28;20042;-54
2022/05/29 08:09:20;;;;;;;8.63;2.10;;;;;;;;;;4965916;28;20777;-53
2022/05/29 08:11:46;;;;;;;5.97;2.00;;;;;;;;;;4967949;28;20485;-54
2022/05/29 08:14:11;;;;;;;4.43;1.75;;;;;;;;;;4966134;28;20406;-53
2022/05/29 08:16:36;;;;;;;6.17;2.47;;;;;;;;;;4966808;28;20033;-54
2022/05/29 08:19:02;;;;;;;8.05;2.42;;;;;;;;;;4967986;28;20536;-53
2022/05/29 08:21:27;;;;;;;5.82;1.85;;;;;;;;;;4966106;28;20042;-53
2022/05/29 08:32:05;;;;;;;7.88;2.10;;;;;;;;;;4964865;28;20025;-50
2022/05/29 08:34:30;;;;;;;7.10;2.00;;;;;;;;;;4966299;28;20033;-51
2022/05/29 08:36:55;;;;;;;4.80;2.17;;;;;;;;;;4965437;28;20102;-50
2022/05/29 08:39:21;;;;;;;5.07;1.92;;;;;;;;;;4966437;28;20007;-50
2022/05/29 08:41:48;;;;;;;6.45;2.20;;;;;;;;;;4949825;28;20157;-50
2022/05/29 08:44:17;;;;;;;7.40;2.35;;;;;;;;;;4966444;28;20041;-51
2022/05/29 08:46:44;;;;;;;7.47;2.00;;;;;;;;;;4965064;28;20442;-50
2022/05/29 08:49:11;;;;;;;5.88;2.15;;;;;;;;;;4972637;28;20158;-49
2022/05/29 08:51:36;;;;;;;12.65;2.08;;;;;;;;;;4968419;28;20484;-50
2022/05/29 08:54:11;;;;;;;6.23;2.43;;;;;;;;;;4984305;28;20046;-51
2022/05/29 08:56:42;;;;;;;8.00;2.22;;;;;;;;;;4985123;28;20037;-51
2022/05/29 08:59:22;;;;;;;9.50;2.08;;;;;;;;;;4987791;28;20018;-51
2022/05/29 09:01:48;;;;;;;7.22;2.05;;;;;;;;;;4981611;28;20035;-50
2022/05/29 09:04:23;;;;;;;5.82;2.33;;;;;;;;;;4984921;28;20511;-50
2022/05/29 09:06:49;;;;;;;6.40;2.00;;;;;;;;;;4971435;28;20121;-50
2022/05/29 09:09:20;;;;;;;9.90;2.35;;;;;;;;;;4984692;28;20165;-51
2022/05/29 09:11:51;;;;;;;6.57;1.98;;;;;;;;;;4963525;28;20512;-51
2022/05/29 09:14:22;;;;;;;7.35;2.10;;;;;;;;;;4985251;28;20018;-50
2022/05/29 09:16:49;;;;;;;8.38;2.40;;;;;;;;;;4985260;28;20022;-50
2022/05/29 09:19:19;;;;;;;7.57;2.53;;;;;;;;;;4985497;28;20105;-50
2022/05/29 09:21:52;;;;;;;9.55;2.55;;;;;;;;;;4982088;28;20049;-50
2022/05/29 09:24:24;;;;;;;9.60;2.83;;;;;;;;;;4984405;28;20018;-50
2022/05/29 09:26:49;;;;;;;6.00;2.20;;;;;;;;;;4969152;28;20065;-51
2022/05/29 09:29:14;;;;;;;7.07;2.77;;;;;;;;;;4984719;28;20076;-50
2022/05/29 09:31:39;;;;;;;10.03;2.33;;;;;;;;;;4985015;28;20030;-50
2022/05/29 09:34:05;;;;;;;5.60;1.70;;;;;;;;;;4967630;28;20018;-50
2022/05/29 09:36:42;;;;;;;8.10;1.73;;;;;;;;;;4986487;28;20019;-51
2022/05/29 09:39:13;;;;;;;6.68;2.10;;;;;;;;;;4966557;28;20027;-50
2022/05/29 09:41:49;;;;;;;10.48;2.38;;;;;;;;;;4983658;28;20030;-51
2022/05/29 09:44:15;;;;;;;9.60;2.03;;;;;;;;;;4971382;28;20416;-51
2022/05/29 09:46:41;;;;;;;8.45;2.53;;;;;;;;;;4989870;28;20042;-49
2022/05/29 09:51:58;;;;;;;7.63;2.20;;;;;;;;;;4981118;28;20093;-50
2022/05/29 09:54:23;;;;;;;8.63;2.25;;;;;;;;;;4986848;28;20509;-50
2022/05/29 09:56:49;;;;;;;8.18;2.47;;;;;;;;;;4983987;28;20061;-51
2022/05/29 09:59:15;;;;;;;7.80;2.40;;;;;;;;;;4984393;28;20049;-50
2022/05/29 10:01:42;;;;;;;5.07;2.38;;;;;;;;;;4973053;28;20077;-50
2022/05/29 10:04:19;;;;;;;6.70;2.20;;;;;;;;;;4984846;28;20026;-51
2022/05/29 10:06:46;;;;;;;7.88;2.53;;;;;;;;;;4988759;28;20038;-49
2022/05/29 10:09:16;;;;;;;8.07;2.60;;;;;;;;;;4987805;28;20093;-50
2022/05/29 10:11:41;;;;;;;5.88;2.22;;;;;;;;;;4988967;28;20042;-53
2022/05/29 10:14:22;;;;;;;10.57;2.50;;;;;;;;;;4988024;28;20022;-54
2022/05/29 10:16:49;;;;;;;9.20;2.75;;;;;;;;;;4991234;28;20026;-53
2022/05/29 10:19:19;;;;;;;9.70;2.50;;;;;;;;;;4993409;28;20026;-52
2022/05/29 10:21:45;;;;;;;10.18;2.50;;;;;;;;;;4974610;28;20026;-55
2022/05/29 10:24:14;;;;;;;11.00;3.28;;;;;;;;;;4972749;28;20026;-53
2022/05/29 10:26:39;;;;;;;12.00;2.88;;;;;;;;;;4986728;28;20048;-53
2022/05/29 10:29:19;;;;;;;9.90;2.80;;;;;;;;;;4987527;28;20026;-52
2022/05/29 10:31:45;;;;;;;13.93;3.10;;;;;;;;;;4987209;28;20030;-49
2022/05/29 10:34:12;;;;;;;10.73;2.65;;;;;;;;;;4988013;28;20030;-50
2022/05/29 10:36:38;;;;;;;10.90;2.80;;;;;;;;;;4989608;28;20053;-48
2022/05/29 10:39:13;;;;;;;8.90;2.50;;;;;;;;;;4974957;28;20528;-50
2022/05/29 10:41:39;;;;;;;8.80;2.50;;;;;;;;;;4977548;28;20030;-50
2022/05/29 10:44:05;;;;;;;7.65;2.90;;;;;;;;;;4989170;28;20038;-48
2022/05/29 10:46:57;;;;;;;7.55;2.60;;;;;;;;;;4989207;28;20125;-50
2022/05/29 10:49:26;;;;;;;7.82;2.55;;;;;;;;;;4987070;28;20043;-49
2022/05/29 10:52:13;;;;;;;8.80;2.60;;;;;;;;;;4993196;28;20124;-50
2022/05/29 10:54:54;;;;;;;8.07;2.60;;;;;;;;;;4991050;28;20524;-53
2022/05/29 10:57:32;;;;;;;9.25;2.83;;;;;;;;;;4990508;28;20042;-50
2022/05/29 11:00:09;;;;;;;6.80;2.70;;;;;;;;;;4986693;28;20076;-49
2022/05/29 11:05:40;;;;;;;7.82;2.55;;;;;;;;;;4989774;28;20049;-50
2022/05/29 11:08:24;;;;;;;8.70;3.20;;;;;;;;;;4994434;28;20037;-53
2022/05/29 11:10:49;;;;;;;6.65;2.60;;;;;;;;;;4988633;28;20057;-52
2022/05/29 11:13:17;;;;;;;9.87;3.03;;;;;;;;;;4992936;28;20453;-50
2022/05/29 11:15:50;;;;;;;10.48;3.08;;;;;;;;;;4985298;28;20532;-50
2022/05/29 11:18:42;;;;;;;8.38;3.42;;;;;;;;;;4976078;28;20113;-50
2022/05/29 11:21:10;;;;;;;7.57;3.05;;;;;;;;;;4984072;28;20117;-50
2022/05/29 11:23:48;;;;;;;9.00;3.00;;;;;;;;;;4988577;28;20034;-51
2022/05/29 11:26:13;;;;;;;8.60;2.80;;;;;;;;;;4991472;28;20457;-51
2022/05/29 11:28:50;;;;;;;8.83;2.60;;;;;;;;;;4997677;28;20031;-51
2022/05/29 11:31:30;;;;;;;10.52;3.63;;;;;;;;;;4972047;28;20109;-50
2022/05/29 11:33:55;;;;;;;;;;;;;;;;;;4973443;28;20022;-51
2022/05/29 11:36:20;;;;;;;9.05;3.25;;;;;;;;;;4987706;28;19914;-52
2022/05/29 11:38:52;;;;;;;7.83;3.60;;;;;;;;;;4986613;28;20485;-51
2022/05/29 11:41:19;;;;;;;11.13;4.00;;;;;;;;;;4985984;28;20022;-52
2022/05/29 11:43:52;;;;;;;11.77;3.53;;;;;;;;;;4969360;28;20033;-51
2022/05/29 11:52:02;;;;;;;8.70;3.42;;;;;;;;;;4970106;28;20193;-51
2022/05/29 11:54:32;;;;;;;7.57;3.83;;;;;;;;;;4969610;28;20084;-51
2022/05/29 11:57:03;;;;;;;10.48;3.20;;;;;;;;;;4986411;28;20030;-53
2022/05/29 11:59:31;;;;;;;8.18;3.22;;;;;;;;;;4967898;28;20050;-51
2022/05/29 12:02:18;;;;;;;9.48;3.60;;;;;;;;;;4984800;28;20552;-51
2022/05/29 12:04:44;;;;;;;6.22;3.05;;;;;;;;;;4980348;28;20030;-51
2022/05/29 12:07:12;;;;;;;10.65;3.25;;;;;;;;;;4968847;28;20025;-51
2022/05/29 12:09:40;;;;;;;7.35;3.50;;;;;;;;;;4987227;28;20019;-51
2022/05/29 12:12:18;;;;;;;8.63;3.10;;;;;;;;;;4979089;28;20117;-51
2022/05/29 12:14:50;;;;;;;10.07;3.65;;;;;;;;;;4963441;28;20019;-51
2022/05/29 12:17:34;;;;;;;11.30;3.60;;;;;;;;;;4977610;28;20053;-51
2022/05/29 12:20:26;;;;;;;9.00;3.80;;;;;;;;;;4978986;28;20573;-50
2022/05/29 12:22:56;;;;;;;11.23;3.72;;;;;;;;;;4969292;28;20041;-51
2022/05/29 12:25:28;;;;;;;8.88;3.80;;;;;;;;;;4969232;28;20080;-52
2022/05/29 12:27:54;;;;;;;11.15;4.10;;;;;;;;;;4969229;28;20109;-53
2022/05/29 12:30:22;;;;;;;10.15;4.07;;;;;;;;;;4987364;28;20109;-52
2022/05/29 12:32:47;;;;;;;9.32;4.03;;;;;;;;;;4969733;28;20006;-50
2022/05/29 12:35:18;;;;;;;8.23;4.10;;;;;;;;;;4982678;28;20023;-51
2022/05/29 12:37:46;;;;;;;8.07;4.70;;;;;;;;;;4962424;28;20281;-52
2022/05/29 12:40:20;;;;;;;12.10;5.15;;;;;;;;;;4982603;28;20149;-51
2022/05/29 12:43:04;;;;;;;9.68;4.88;;;;;;;;;;4982271;28;20019;-50
2022/05/29 12:45:30;;;;;;;11.38;5.13;;;;;;;;;;4980363;28;20477;-51
2022/05/29 12:47:55;;;;;;;7.72;4.32;;;;;;;;;;4979398;28;20033;-51
2022/05/29 12:50:26;;;;;;;9.77;4.23;;;;;;;;;;4982997;28;20046;-51
2022/05/29 12:53:03;;;;;;;10.55;5.22;;;;;;;;;;4980627;28;20109;-51
2022/05/29 12:55:32;;;;;;;11.52;4.80;;;;;;;;;;4985763;28;20493;-52
2022/05/29 12:58:07;;;;;;;12.75;5.63;;;;;;;;;;4983427;28;20011;-50
2022/05/29 13:00:38;;;;;;;13.18;5.05;;;;;;;;;;4966338;28;20026;-50
2022/05/29 13:03:22;;;;;;;10.98;5.30;;;;;;;;;;4983174;28;20026;-52
2022/05/29 13:05:53;;;;;;;10.25;5.20;;;;;;;;;;4982456;28;20519;-52
2022/05/29 13:08:37;;;;;;;9.63;5.40;;;;;;;;;;4983394;28;20061;-51
2022/05/29 13:11:03;;;;;;;10.38;5.60;;;;;;;;;;4980287;28;20034;-52
2022/05/29 13:13:31;;;;;;;9.30;5.90;;;;;;;;;;4965730;28;20053;-52
2022/05/29 13:16:09;;;;;;;11.88;5.93;;;;;;;;;;4982291;28;20038;-52
2022/05/29 13:21:04;;;;;;;7.27;5.33;;;;;;;;;;4981687;28;20120;-52
2022/05/29 13:23:30;;;;;;;9.85;5.40;;;;;;;;;;4968805;28;20036;-52
2022/05/29 13:25:56;;;;;;;9.35;5.47;;;;;;;;;;4981146;28;20050;-50
2022/05/29 13:28:45;;;;;;;10.38;5.82;;;;;;;;;;4983726;28;20211;-49
2022/05/29 13:31:12;;;;;;;11.80;5.67;;;;;;;;;;4980709;28;20028;-51
2022/05/29 13:33:44;;;;;;;9.23;5.57;;;;;;;;;;4984505;28;20108;-50
2022/05/29 13:36:10;;;;;;;10.15;6.00;;;;;;;;;;4983459;28;20485;-52
2022/05/29 13:38:44;;;;;;;14.98;6.28;;;;;;;;;;4984240;28;20029;-51
2022/05/29 13:41:12;;;;;;;10.50;6.10;;;;;;;;;;4983851;28;20084;-52
2022/05/29 13:43:38;;;;;;;10.75;5.82;;;;;;;;;;4987328;28;20413;-52
2022/05/29 13:46:05;;;;;;;11.82;5.82;;;;;;;;;;4985750;28;20862;-52
2022/05/29 13:48:31;;;;;;;11.60;6.18;;;;;;;;;;4987037;28;20129;-50
2022/05/29 13:51:03;;;;;;;11.23;5.43;;;;;;;;;;4987481;28;20533;-52
2022/05/29 13:53:30;;;;;;;10.65;5.70;;;;;;;;;;4986938;28;20096;-51
2022/05/29 13:56:03;;;;;;;11.90;6.00;;;;;;;;;;4986779;28;20026;-50
2022/05/29 14:04:37;;;;;;;10.93;5.60;;;;;;;;;;4979204;28;20045;-50
2022/05/29 14:07:08;;;;;;;12.75;6.13;;;;;;;;;;4983344;28;20045;-50
2022/05/29 14:09:33;;;;;;;13.55;5.90;;;;;;;;;;4985777;28;20022;-52
2022/05/29 14:11:59;;;;;;;10.27;5.40;;;;;;;;;;4982673;28;20512;-50
2022/05/29 14:14:34;;;;;;;9.13;5.63;;;;;;;;;;4969871;28;20797;-52
2022/05/29 14:17:02;;;;;;;10.35;5.63;;;;;;;;;;4987018;28;20095;-52
2022/05/29 14:19:43;;;;;;;11.73;5.78;;;;;;;;;;4985661;28;20416;-52
2022/05/29 14:22:11;;;;;;;9.45;5.53;;;;;;;;;;4984098;28;20030;-53
2022/05/29 14:24:37;;;;;;;11.15;5.60;;;;;;;;;;4990210;28;20026;-51
2022/05/29 14:27:20;;;;;;;11.18;5.05;;;;;;;;;;4986486;28;20050;-51
2022/05/29 14:29:46;;;;;;;10.30;5.50;;;;;;;;;;4983184;28;20026;-52
2022/05/29 14:32:15;;;;;;;11.93;5.63;;;;;;;;;;4986598;28;20033;-52
2022/05/29 14:34:59;;;;;;;8.63;5.53;;;;;;;;;;4970224;28;20022;-50
2022/05/29 14:37:44;;;;;;;8.35;4.72;;;;;;;;;;4983133;28;20039;-51
2022/05/29 14:40:28;;;;;;;11.93;5.93;;;;;;;;;;4981619;28;20038;-52
2022/05/29 14:42:54;;;;;;;11.45;5.07;;;;;;;;;;4982926;28;20118;-51
2022/05/29 14:45:20;;;;;;;12.65;5.20;;;;;;;;;;4986400;28;20014;-50
2022/05/29 14:47:52;;;;;;;11.83;5.20;;;;;;;;;;4982368;28;20414;-51
2022/05/29 14:50:26;;;;;;;12.80;5.20;;;;;;;;;;4985671;28;20038;-51
2022/05/29 14:52:55;;;;;;;10.85;5.22;;;;;;;;;;4983052;28;20030;-53
2022/05/29 14:55:30;;;;;;;10.65;4.80;;;;;;;;;;4985490;28;20230;-51
2022/05/29 14:57:56;;;;;;;8.60;5.18;;;;;;;;;;4966854;28;20061;-51
2022/05/29 15:00:31;;;;;;;8.60;5.20;;;;;;;;;;4981866;28;20109;-51
2022/05/29 15:02:58;;;;;;;12.70;5.40;;;;;;;;;;4986611;28;20026;-51
2022/05/29 15:05:23;;;;;;;10.60;5.05;;;;;;;;;;4970279;28;20042;-52
2022/05/29 15:10:34;;;;;;;9.40;4.88;;;;;;;;;;4982059;28;20074;-51
2022/05/29 15:13:10;;;;;;;11.45;4.97;;;;;;;;;;4987922;28;20062;-51
2022/05/29 15:15:38;;;;;;;10.52;5.55;;;;;;;;;;4970269;28;20058;-51
2022/05/29 15:18:13;;;;;;;10.27;4.90;;;;;;;;;;4971226;28;20029;-52
2022/05/29 15:26:18;;;;;;;8.23;3.10;;;;;;;;;;4982069;28;20085;-52
2022/05/29 15:28:48;;;;;;;7.72;3.33;;;;;;;;;;4985080;28;20030;-50
2022/05/29 15:31:14;;;;;;;5.82;2.80;;;;;;;;;;4964370;28;20049;-50
2022/05/29 15:34:02;;;;;;;6.47;2.80;;;;;;;;;;4985725;28;20034;-50
2022/05/29 15:36:36;;;;;;;6.40;2.45;;;;;;;;;;4983522;28;20042;-51
2022/05/29 15:39:22;;;;;;;7.05;2.20;;;;;;;;;;4977233;28;20091;-52
2022/05/29 15:41:52;;;;;;;11.30;2.22;;;;;;;;;;4953127;28;20034;-51
2022/05/29 15:44:37;;;;;;;8.48;2.50;;;;;;;;;;4965137;28;20037;-50